sensor_id;sensor_type;location;lat;lon;timestamp;temperature;humidity
11836;DHT22;5977;51.972;7.640;2022-10-16T00:02:24;20.20;95.10
11836;DHT22;5977;51.972;7.640;2022-10-16T00:04:52;20.30;94.40
11836;DHT22;5977;51.972;7.640;2022-10-16T00:07:21;20.20;94.30
11836;DHT22;5977;51.972;7.640;2022-10-16T00:09:49;20.10;94.20
11836;DHT22;5977;51.972;7.640;2022-10-16T00:12:18;20.20;95.00
11836;DHT22;5977;51.972;7.640;2022-10-16T00:14:46;20.10;95.10
11836;DHT22;5977;51.972;7.640;2022-10-16T00:17:14;20.00;94.90
11836;DHT22;5977;51.972;7.640;2022-10-16T00:19:42;20.10;95.10
11836;DHT22;5977;51.972;7.640;2022-10-16T00:22:10;20.10;94.90
11836;DHT22;5977;51.972;7.640;2022-10-16T00:24:37;20.00;95.50
11836;DHT22;5977;51.972;7.640;2022-10-16T00:27:06;20.10;94.70
11836;DHT22;5977;51.972;7.640;2022-10-16T00:29:35;20.00;95.00
11836;DHT22;5977;51.972;7.640;2022-10-16T00:32:03;20.00;95.40
11836;DHT22;5977;51.972;7.640;2022-10-16T00:34:31;19.90;95.80
11836;DHT22;5977;51.972;7.640;2022-10-16T00:36:59;20.00;95.60
11836;DHT22;5977;51.972;7.640;2022-10-16T00:39:26;20.10;95.30
11836;DHT22;5977;51.972;7.640;2022-10-16T00:41:54;20.00;95.40
11836;DHT22;5977;51.972;7.640;2022-10-16T00:44:45;20.00;95.00
11836;DHT22;5977;51.972;7.640;2022-10-16T00:47:19;20.10;95.10
11836;DHT22;5977;51.972;7.640;2022-10-16T00:49:48;20.00;95.10
11836;DHT22;5977;51.972;7.640;2022-10-16T00:52:18;19.90;95.60
11836;DHT22;5977;51.972;7.640;2022-10-16T00:54:47;19.90;96.00
11836;DHT22;5977;51.972;7.640;2022-10-16T00:57:16;20.00;96.10
11836;DHT22;5977;51.972;7.640;2022-10-16T00:59:46;20.20;95.60
11836;DHT22;5977;51.972;7.640;2022-10-16T01:02:15;20.20;95.40
11836;DHT22;5977;51.972;7.640;2022-10-16T01:04:46;20.20;94.80
11836;DHT22;5977;51.972;7.640;2022-10-16T01:07:21;20.10;94.80
11836;DHT22;5977;51.972;7.640;2022-10-16T01:10:02;20.00;94.90
11836;DHT22;5977;51.972;7.640;2022-10-16T01:12:40;19.80;95.20
11836;DHT22;5977;51.972;7.640;2022-10-16T01:15:19;19.80;96.10
11836;DHT22;5977;51.972;7.640;2022-10-16T01:17:53;19.90;95.50
11836;DHT22;5977;51.972;7.640;2022-10-16T01:20:27;19.80;95.80
11836;DHT22;5977;51.972;7.640;2022-10-16T01:23:04;19.70;96.30
11836;DHT22;5977;51.972;7.640;2022-10-16T01:25:53;19.50;96.60
11836;DHT22;5977;51.972;7.640;2022-10-16T01:28:27;19.60;96.90
11836;DHT22;5977;51.972;7.640;2022-10-16T01:30:58;19.60;96.80
11836;DHT22;5977;51.972;7.640;2022-10-16T01:33:30;19.70;96.70
11836;DHT22;5977;51.972;7.640;2022-10-16T01:36:05;19.60;96.20
11836;DHT22;5977;51.972;7.640;2022-10-16T01:38:36;19.80;96.50
11836;DHT22;5977;51.972;7.640;2022-10-16T01:41:09;19.70;96.00
11836;DHT22;5977;51.972;7.640;2022-10-16T01:43:40;19.80;95.90
11836;DHT22;5977;51.972;7.640;2022-10-16T01:46:11;19.80;95.90
11836;DHT22;5977;51.972;7.640;2022-10-16T01:48:41;19.80;96.80
11836;DHT22;5977;51.972;7.640;2022-10-16T01:51:11;19.70;96.30
11836;DHT22;5977;51.972;7.640;2022-10-16T01:53:40;19.70;95.90
11836;DHT22;5977;51.972;7.640;2022-10-16T01:56:11;19.80;96.50
11836;DHT22;5977;51.972;7.640;2022-10-16T01:58:45;19.80;96.10
11836;DHT22;5977;51.972;7.640;2022-10-16T02:01:16;19.80;95.70
11836;DHT22;5977;51.972;7.640;2022-10-16T02:03:46;19.70;96.10
11836;DHT22;5977;51.972;7.640;2022-10-16T02:06:16;19.60;96.90
11836;DHT22;5977;51.972;7.640;2022-10-16T02:08:44;19.90;96.90
11836;DHT22;5977;51.972;7.640;2022-10-16T02:11:12;19.80;95.80
11836;DHT22;5977;51.972;7.640;2022-10-16T02:13:43;19.70;96.90
11836;DHT22;5977;51.972;7.640;2022-10-16T02:16:13;19.60;96.90
11836;DHT22;5977;51.972;7.640;2022-10-16T02:18:42;19.60;96.80
11836;DHT22;5977;51.972;7.640;2022-10-16T02:21:16;19.60;97.10
11836;DHT22;5977;51.972;7.640;2022-10-16T02:23:49;19.60;96.30
11836;DHT22;5977;51.972;7.640;2022-10-16T02:26:25;19.60;96.50
11836;DHT22;5977;51.972;7.640;2022-10-16T02:29:00;19.70;96.30
11836;DHT22;5977;51.972;7.640;2022-10-16T02:31:34;19.60;96.70
11836;DHT22;5977;51.972;7.640;2022-10-16T02:34:04;19.60;97.20
11836;DHT22;5977;51.972;7.640;2022-10-16T02:36:34;19.50;96.80
11836;DHT22;5977;51.972;7.640;2022-10-16T02:39:04;19.50;97.30
11836;DHT22;5977;51.972;7.640;2022-10-16T02:41:32;19.60;97.90
11836;DHT22;5977;51.972;7.640;2022-10-16T02:44:01;19.50;97.50
11836;DHT22;5977;51.972;7.640;2022-10-16T02:46:29;19.60;97.50
11836;DHT22;5977;51.972;7.640;2022-10-16T02:48:57;19.60;97.30
11836;DHT22;5977;51.972;7.640;2022-10-16T02:51:25;19.60;97.20
11836;DHT22;5977;51.972;7.640;2022-10-16T02:53:53;19.70;96.80
11836;DHT22;5977;51.972;7.640;2022-10-16T02:56:21;19.60;96.40
11836;DHT22;5977;51.972;7.640;2022-10-16T02:58:49;19.60;96.60
11836;DHT22;5977;51.972;7.640;2022-10-16T03:01:18;19.50;97.20
11836;DHT22;5977;51.972;7.640;2022-10-16T03:03:46;19.50;97.50
11836;DHT22;5977;51.972;7.640;2022-10-16T03:06:14;19.50;97.50
11836;DHT22;5977;51.972;7.640;2022-10-16T03:08:41;19.50;97.30
11836;DHT22;5977;51.972;7.640;2022-10-16T03:11:09;19.50;97.60
11836;DHT22;5977;51.972;7.640;2022-10-16T03:13:37;19.40;97.10
11836;DHT22;5977;51.972;7.640;2022-10-16T03:16:05;19.50;97.60
11836;DHT22;5977;51.972;7.640;2022-10-16T03:18:34;19.50;97.40
11836;DHT22;5977;51.972;7.640;2022-10-16T03:21:02;19.70;97.30
11836;DHT22;5977;51.972;7.640;2022-10-16T03:23:30;19.50;96.90
11836;DHT22;5977;51.972;7.640;2022-10-16T03:25:57;19.60;97.70
11836;DHT22;5977;51.972;7.640;2022-10-16T03:28:25;19.60;97.30
11836;DHT22;5977;51.972;7.640;2022-10-16T03:30:53;19.60;97.20
11836;DHT22;5977;51.972;7.640;2022-10-16T03:33:21;19.60;96.60
11836;DHT22;5977;51.972;7.640;2022-10-16T03:35:54;19.60;96.30
11836;DHT22;5977;51.972;7.640;2022-10-16T03:38:22;19.60;96.50
11836;DHT22;5977;51.972;7.640;2022-10-16T03:40:50;19.60;96.00
11836;DHT22;5977;51.972;7.640;2022-10-16T03:43:17;19.50;96.60
11836;DHT22;5977;51.972;7.640;2022-10-16T03:45:45;19.50;97.10
11836;DHT22;5977;51.972;7.640;2022-10-16T03:48:13;19.50;97.10
11836;DHT22;5977;51.972;7.640;2022-10-16T03:50:41;19.50;97.00
11836;DHT22;5977;51.972;7.640;2022-10-16T03:53:10;19.40;97.10
11836;DHT22;5977;51.972;7.640;2022-10-16T03:55:38;19.40;97.30
11836;DHT22;5977;51.972;7.640;2022-10-16T03:58:06;19.50;96.80
11836;DHT22;5977;51.972;7.640;2022-10-16T04:00:33;19.50;97.00
11836;DHT22;5977;51.972;7.640;2022-10-16T04:03:01;19.50;96.70
11836;DHT22;5977;51.972;7.640;2022-10-16T04:05:29;19.60;96.90
11836;DHT22;5977;51.972;7.640;2022-10-16T04:07:57;19.60;96.40
11836;DHT22;5977;51.972;7.640;2022-10-16T04:10:26;19.50;96.70
11836;DHT22;5977;51.972;7.640;2022-10-16T04:12:54;19.50;96.80
11836;DHT22;5977;51.972;7.640;2022-10-16T04:15:22;19.70;97.30
11836;DHT22;5977;51.972;7.640;2022-10-16T04:17:51;19.90;96.00
11836;DHT22;5977;51.972;7.640;2022-10-16T04:20:19;19.70;96.10
11836;DHT22;5977;51.972;7.640;2022-10-16T04:22:47;20.00;96.10
11836;DHT22;5977;51.972;7.640;2022-10-16T04:25:15;19.80;94.90
11836;DHT22;5977;51.972;7.640;2022-10-16T04:27:44;19.80;95.60
11836;DHT22;5977;51.972;7.640;2022-10-16T04:30:12;19.90;95.50
11836;DHT22;5977;51.972;7.640;2022-10-16T04:32:40;19.80;94.60
11836;DHT22;5977;51.972;7.640;2022-10-16T04:35:08;19.60;96.00
11836;DHT22;5977;51.972;7.640;2022-10-16T04:37:36;19.70;95.80
11836;DHT22;5977;51.972;7.640;2022-10-16T04:40:05;19.70;95.90
11836;DHT22;5977;51.972;7.640;2022-10-16T04:42:33;19.80;95.80
11836;DHT22;5977;51.972;7.640;2022-10-16T04:45:02;19.80;95.90
11836;DHT22;5977;51.972;7.640;2022-10-16T04:47:30;19.80;95.30
11836;DHT22;5977;51.972;7.640;2022-10-16T04:49:58;19.60;96.30
11836;DHT22;5977;51.972;7.640;2022-10-16T04:52:29;19.80;95.50
11836;DHT22;5977;51.972;7.640;2022-10-16T04:54:58;19.70;96.00
11836;DHT22;5977;51.972;7.640;2022-10-16T04:57:29;19.30;96.10
11836;DHT22;5977;51.972;7.640;2022-10-16T04:59:57;19.30;96.10
11836;DHT22;5977;51.972;7.640;2022-10-16T05:02:26;19.60;95.90
11836;DHT22;5977;51.972;7.640;2022-10-16T05:04:54;19.60;94.90
11836;DHT22;5977;51.972;7.640;2022-10-16T05:07:21;19.60;95.40
11836;DHT22;5977;51.972;7.640;2022-10-16T05:09:50;19.70;95.80
11836;DHT22;5977;51.972;7.640;2022-10-16T05:12:18;19.70;95.50
11836;DHT22;5977;51.972;7.640;2022-10-16T05:14:45;19.70;95.30
11836;DHT22;5977;51.972;7.640;2022-10-16T05:17:13;19.80;95.00
11836;DHT22;5977;51.972;7.640;2022-10-16T05:19:42;19.80;94.90
11836;DHT22;5977;51.972;7.640;2022-10-16T05:22:11;19.80;94.40
11836;DHT22;5977;51.972;7.640;2022-10-16T05:24:38;19.60;94.80
11836;DHT22;5977;51.972;7.640;2022-10-16T05:27:06;19.20;94.60
11836;DHT22;5977;51.972;7.640;2022-10-16T05:29:34;19.10;96.80
11836;DHT22;5977;51.972;7.640;2022-10-16T05:32:02;19.00;96.90
11836;DHT22;5977;51.972;7.640;2022-10-16T05:34:29;18.90;97.20
11836;DHT22;5977;51.972;7.640;2022-10-16T05:36:59;18.90;96.80
11836;DHT22;5977;51.972;7.640;2022-10-16T05:39:26;18.70;97.50
11836;DHT22;5977;51.972;7.640;2022-10-16T05:41:54;18.60;98.10
11836;DHT22;5977;51.972;7.640;2022-10-16T05:44:22;18.60;97.60
11836;DHT22;5977;51.972;7.640;2022-10-16T05:46:50;18.60;97.90
11836;DHT22;5977;51.972;7.640;2022-10-16T05:49:18;18.60;98.20
11836;DHT22;5977;51.972;7.640;2022-10-16T05:51:45;18.70;98.20
11836;DHT22;5977;51.972;7.640;2022-10-16T05:54:15;18.70;98.80
11836;DHT22;5977;51.972;7.640;2022-10-16T05:56:43;18.80;98.90
11836;DHT22;5977;51.972;7.640;2022-10-16T05:59:11;18.70;98.40
11836;DHT22;5977;51.972;7.640;2022-10-16T06:01:38;18.70;99.20
11836;DHT22;5977;51.972;7.640;2022-10-16T06:04:07;18.70;99.30
11836;DHT22;5977;51.972;7.640;2022-10-16T06:06:40;18.60;99.60
11836;DHT22;5977;51.972;7.640;2022-10-16T06:09:10;18.50;99.90
11836;DHT22;5977;51.972;7.640;2022-10-16T06:11:39;18.40;99.90
11836;DHT22;5977;51.972;7.640;2022-10-16T06:14:08;18.30;99.70
11836;DHT22;5977;51.972;7.640;2022-10-16T06:16:37;18.40;99.80
11836;DHT22;5977;51.972;7.640;2022-10-16T06:19:05;18.40;99.10
11836;DHT22;5977;51.972;7.640;2022-10-16T06:21:34;18.30;99.10
11836;DHT22;5977;51.972;7.640;2022-10-16T06:24:02;18.20;98.90
11836;DHT22;5977;51.972;7.640;2022-10-16T06:26:31;18.20;98.90
11836;DHT22;5977;51.972;7.640;2022-10-16T06:29:00;18.20;99.10
11836;DHT22;5977;51.972;7.640;2022-10-16T06:31:29;18.20;98.80
11836;DHT22;5977;51.972;7.640;2022-10-16T06:33:58;18.20;97.90
11836;DHT22;5977;51.972;7.640;2022-10-16T06:36:26;18.20;98.10
11836;DHT22;5977;51.972;7.640;2022-10-16T06:38:54;18.20;98.30
11836;DHT22;5977;51.972;7.640;2022-10-16T06:41:22;18.30;98.10
11836;DHT22;5977;51.972;7.640;2022-10-16T06:43:50;18.20;97.80
11836;DHT22;5977;51.972;7.640;2022-10-16T06:46:22;18.20;97.70
11836;DHT22;5977;51.972;7.640;2022-10-16T06:48:50;18.20;97.50
11836;DHT22;5977;51.972;7.640;2022-10-16T06:51:19;18.20;97.50
11836;DHT22;5977;51.972;7.640;2022-10-16T06:53:49;18.20;97.40
11836;DHT22;5977;51.972;7.640;2022-10-16T06:56:33;18.10;97.80
11836;DHT22;5977;51.972;7.640;2022-10-16T06:59:01;18.10;97.80
11836;DHT22;5977;51.972;7.640;2022-10-16T07:01:31;18.20;97.40
11836;DHT22;5977;51.972;7.640;2022-10-16T07:03:59;18.20;97.50
11836;DHT22;5977;51.972;7.640;2022-10-16T07:06:31;18.20;96.80
11836;DHT22;5977;51.972;7.640;2022-10-16T07:09:02;18.20;97.00
11836;DHT22;5977;51.972;7.640;2022-10-16T07:11:30;18.10;97.30
11836;DHT22;5977;51.972;7.640;2022-10-16T07:13:59;18.20;97.30
11836;DHT22;5977;51.972;7.640;2022-10-16T07:16:28;18.20;97.30
11836;DHT22;5977;51.972;7.640;2022-10-16T07:18:59;18.20;97.20
11836;DHT22;5977;51.972;7.640;2022-10-16T07:21:28;18.30;97.20
11836;DHT22;5977;51.972;7.640;2022-10-16T07:23:58;18.30;96.80
11836;DHT22;5977;51.972;7.640;2022-10-16T07:26:28;18.20;97.00
11836;DHT22;5977;51.972;7.640;2022-10-16T07:28:56;18.20;97.40
11836;DHT22;5977;51.972;7.640;2022-10-16T07:31:25;18.20;97.20
11836;DHT22;5977;51.972;7.640;2022-10-16T07:33:53;18.40;96.70
11836;DHT22;5977;51.972;7.640;2022-10-16T07:36:22;18.70;95.70
11836;DHT22;5977;51.972;7.640;2022-10-16T07:38:50;19.20;93.60
11836;DHT22;5977;51.972;7.640;2022-10-16T07:41:24;19.60;91.70
11836;DHT22;5977;51.972;7.640;2022-10-16T07:43:53;19.90;90.30
11836;DHT22;5977;51.972;7.640;2022-10-16T07:46:22;20.20;90.00
11836;DHT22;5977;51.972;7.640;2022-10-16T07:48:50;20.40;89.00
11836;DHT22;5977;51.972;7.640;2022-10-16T07:51:22;20.50;89.00
11836;DHT22;5977;51.972;7.640;2022-10-16T07:53:52;20.70;87.70
11836;DHT22;5977;51.972;7.640;2022-10-16T07:56:20;20.60;88.80
11836;DHT22;5977;51.972;7.640;2022-10-16T07:58:51;20.80;89.60
11836;DHT22;5977;51.972;7.640;2022-10-16T08:07:02;21.20;88.50
11836;DHT22;5977;51.972;7.640;2022-10-16T08:09:41;21.50;86.90
11836;DHT22;5977;51.972;7.640;2022-10-16T08:12:09;21.60;86.70
11836;DHT22;5977;51.972;7.640;2022-10-16T08:14:37;21.60;85.90
11836;DHT22;5977;51.972;7.640;2022-10-16T08:17:07;21.70;85.50
11836;DHT22;5977;51.972;7.640;2022-10-16T08:19:34;21.80;85.50
11836;DHT22;5977;51.972;7.640;2022-10-16T08:22:02;21.80;84.00
11836;DHT22;5977;51.972;7.640;2022-10-16T08:24:30;22.00;83.60
11836;DHT22;5977;51.972;7.640;2022-10-16T08:27:00;22.00;83.30
11836;DHT22;5977;51.972;7.640;2022-10-16T08:29:28;22.00;83.30
11836;DHT22;5977;51.972;7.640;2022-10-16T08:31:56;22.10;83.10
11836;DHT22;5977;51.972;7.640;2022-10-16T08:34:23;22.20;82.70
11836;DHT22;5977;51.972;7.640;2022-10-16T08:36:53;22.20;82.80
11836;DHT22;5977;51.972;7.640;2022-10-16T08:39:21;22.20;81.30
11836;DHT22;5977;51.972;7.640;2022-10-16T08:42:07;22.40;82.00
11836;DHT22;5977;51.972;7.640;2022-10-16T08:45:00;22.30;80.40
11836;DHT22;5977;51.972;7.640;2022-10-16T08:47:39;22.20;79.90
11836;DHT22;5977;51.972;7.640;2022-10-16T08:50:13;22.20;79.50
11836;DHT22;5977;51.972;7.640;2022-10-16T08:52:44;22.10;79.40
11836;DHT22;5977;51.972;7.640;2022-10-16T08:55:27;22.10;79.30
11836;DHT22;5977;51.972;7.640;2022-10-16T08:57:57;22.20;79.30
11836;DHT22;5977;51.972;7.640;2022-10-16T09:00:26;22.20;77.90
11836;DHT22;5977;51.972;7.640;2022-10-16T09:03:03;22.10;78.30
11836;DHT22;5977;51.972;7.640;2022-10-16T09:05:53;22.20;78.10
11836;DHT22;5977;51.972;7.640;2022-10-16T09:08:31;22.20;77.50
11836;DHT22;5977;51.972;7.640;2022-10-16T09:11:09;22.10;77.00
11836;DHT22;5977;51.972;7.640;2022-10-16T09:13:49;22.20;77.50
11836;DHT22;5977;51.972;7.640;2022-10-16T09:16:24;22.20;77.20
11836;DHT22;5977;51.972;7.640;2022-10-16T09:18:58;22.20;77.20
11836;DHT22;5977;51.972;7.640;2022-10-16T09:21:30;22.10;77.20
11836;DHT22;5977;51.972;7.640;2022-10-16T09:24:00;22.10;77.20
11836;DHT22;5977;51.972;7.640;2022-10-16T09:26:34;21.80;75.30
11836;DHT22;5977;51.972;7.640;2022-10-16T09:29:04;21.60;75.90
11836;DHT22;5977;51.972;7.640;2022-10-16T09:31:32;21.40;76.60
11836;DHT22;5977;51.972;7.640;2022-10-16T09:34:04;21.20;76.90
11836;DHT22;5977;51.972;7.640;2022-10-16T09:36:40;21.00;77.80
11836;DHT22;5977;51.972;7.640;2022-10-16T09:39:10;20.90;78.60
11836;DHT22;5977;51.972;7.640;2022-10-16T09:41:39;20.80;78.40
11836;DHT22;5977;51.972;7.640;2022-10-16T09:44:19;20.80;78.60
11836;DHT22;5977;51.972;7.640;2022-10-16T09:46:48;20.90;79.50
11836;DHT22;5977;51.972;7.640;2022-10-16T09:49:21;21.00;80.00
11836;DHT22;5977;51.972;7.640;2022-10-16T09:51:50;21.50;79.80
11836;DHT22;5977;51.972;7.640;2022-10-16T09:54:19;21.80;79.70
11836;DHT22;5977;51.972;7.640;2022-10-16T09:56:48;22.00;78.60
11836;DHT22;5977;51.972;7.640;2022-10-16T09:59:21;22.10;78.70
11836;DHT22;5977;51.972;7.640;2022-10-16T10:01:51;22.20;78.00
11836;DHT22;5977;51.972;7.640;2022-10-16T10:04:23;22.20;78.10
11836;DHT22;5977;51.972;7.640;2022-10-16T10:06:53;22.30;78.50
11836;DHT22;5977;51.972;7.640;2022-10-16T10:09:24;22.20;77.30
11836;DHT22;5977;51.972;7.640;2022-10-16T10:11:55;22.00;77.90
11836;DHT22;5977;51.972;7.640;2022-10-16T10:14:30;22.00;78.80
11836;DHT22;5977;51.972;7.640;2022-10-16T10:17:18;22.30;79.50
11836;DHT22;5977;51.972;7.640;2022-10-16T10:19:48;22.40;78.70
11836;DHT22;5977;51.972;7.640;2022-10-16T10:22:26;22.50;78.30
11836;DHT22;5977;51.972;7.640;2022-10-16T10:25:20;22.60;78.30
11836;DHT22;5977;51.972;7.640;2022-10-16T10:28:18;22.70;78.10
11836;DHT22;5977;51.972;7.640;2022-10-16T10:30:56;22.80;77.90
11836;DHT22;5977;51.972;7.640;2022-10-16T10:33:34;22.90;77.60
11836;DHT22;5977;51.972;7.640;2022-10-16T10:36:16;22.80;76.50
11836;DHT22;5977;51.972;7.640;2022-10-16T10:38:50;22.80;77.10
11836;DHT22;5977;51.972;7.640;2022-10-16T10:44:16;22.60;76.70
11836;DHT22;5977;51.972;7.640;2022-10-16T10:46:51;22.50;77.10
11836;DHT22;5977;51.972;7.640;2022-10-16T10:49:37;22.60;77.50
11836;DHT22;5977;51.972;7.640;2022-10-16T10:52:26;22.60;77.70
11836;DHT22;5977;51.972;7.640;2022-10-16T10:55:06;22.60;77.40
11836;DHT22;5977;51.972;7.640;2022-10-16T10:57:42;22.50;75.80
11836;DHT22;5977;51.972;7.640;2022-10-16T11:00:21;22.30;75.40
11836;DHT22;5977;51.972;7.640;2022-10-16T11:02:58;22.40;78.60
11836;DHT22;5977;51.972;7.640;2022-10-16T11:05:41;22.50;78.00
11836;DHT22;5977;51.972;7.640;2022-10-16T11:08:15;22.60;76.30
11836;DHT22;5977;51.972;7.640;2022-10-16T11:10:49;22.50;78.10
11836;DHT22;5977;51.972;7.640;2022-10-16T11:13:28;22.50;76.70
11836;DHT22;5977;51.972;7.640;2022-10-16T11:16:00;22.50;78.40
11836;DHT22;5977;51.972;7.640;2022-10-16T11:18:38;22.50;77.70
11836;DHT22;5977;51.972;7.640;2022-10-16T11:21:10;22.50;76.20
11836;DHT22;5977;51.972;7.640;2022-10-16T11:23:44;22.50;78.60
11836;DHT22;5977;51.972;7.640;2022-10-16T11:26:18;22.40;76.30
11836;DHT22;5977;51.972;7.640;2022-10-16T11:28:48;22.40;78.10
11836;DHT22;5977;51.972;7.640;2022-10-16T11:31:22;22.50;78.50
11836;DHT22;5977;51.972;7.640;2022-10-16T11:34:01;22.40;78.20
11836;DHT22;5977;51.972;7.640;2022-10-16T11:36:35;22.40;77.00
11836;DHT22;5977;51.972;7.640;2022-10-16T11:39:11;22.20;77.20
11836;DHT22;5977;51.972;7.640;2022-10-16T11:41:45;22.10;76.50
11836;DHT22;5977;51.972;7.640;2022-10-16T11:44:25;22.00;76.60
11836;DHT22;5977;51.972;7.640;2022-10-16T11:47:02;22.00;78.00
11836;DHT22;5977;51.972;7.640;2022-10-16T11:49:59;22.00;76.70
11836;DHT22;5977;51.972;7.640;2022-10-16T11:52:33;21.90;77.60
11836;DHT22;5977;51.972;7.640;2022-10-16T11:55:08;21.90;77.30
11836;DHT22;5977;51.972;7.640;2022-10-16T11:57:43;22.00;77.90
11836;DHT22;5977;51.972;7.640;2022-10-16T12:00:21;21.90;77.00
11836;DHT22;5977;51.972;7.640;2022-10-16T12:02:57;22.00;78.00
11836;DHT22;5977;51.972;7.640;2022-10-16T12:05:35;22.00;78.50
11836;DHT22;5977;51.972;7.640;2022-10-16T12:08:11;22.00;76.60
11836;DHT22;5977;51.972;7.640;2022-10-16T12:10:42;22.00;77.50
11836;DHT22;5977;51.972;7.640;2022-10-16T12:13:30;21.90;77.10
11836;DHT22;5977;51.972;7.640;2022-10-16T12:16:06;22.00;77.30
11836;DHT22;5977;51.972;7.640;2022-10-16T12:18:34;22.00;78.10
11836;DHT22;5977;51.972;7.640;2022-10-16T12:21:04;22.00;77.70
11836;DHT22;5977;51.972;7.640;2022-10-16T12:23:37;22.10;77.90
11836;DHT22;5977;51.972;7.640;2022-10-16T12:26:05;22.10;77.40
11836;DHT22;5977;51.972;7.640;2022-10-16T12:28:33;22.00;77.00
11836;DHT22;5977;51.972;7.640;2022-10-16T12:31:04;21.90;77.00
11836;DHT22;5977;51.972;7.640;2022-10-16T12:33:34;21.90;76.80
11836;DHT22;5977;51.972;7.640;2022-10-16T12:36:08;21.90;78.10
11836;DHT22;5977;51.972;7.640;2022-10-16T12:38:47;22.00;77.60
11836;DHT22;5977;51.972;7.640;2022-10-16T12:41:25;21.80;77.20
11836;DHT22;5977;51.972;7.640;2022-10-16T12:43:53;21.90;77.50
11836;DHT22;5977;51.972;7.640;2022-10-16T12:46:24;22.00;78.50
11836;DHT22;5977;51.972;7.640;2022-10-16T12:49:20;22.00;77.40
11836;DHT22;5977;51.972;7.640;2022-10-16T12:51:50;22.00;78.30
11836;DHT22;5977;51.972;7.640;2022-10-16T12:54:20;22.10;78.30
11836;DHT22;5977;51.972;7.640;2022-10-16T12:57:04;22.00;77.60
11836;DHT22;5977;51.972;7.640;2022-10-16T12:59:42;21.90;76.50
11836;DHT22;5977;51.972;7.640;2022-10-16T13:02:39;21.90;77.50
11836;DHT22;5977;51.972;7.640;2022-10-16T13:05:21;21.90;77.70
11836;DHT22;5977;51.972;7.640;2022-10-16T13:08:11;22.00;78.20
11836;DHT22;5977;51.972;7.640;2022-10-16T13:10:54;21.90;75.80
11836;DHT22;5977;51.972;7.640;2022-10-16T13:13:40;22.00;77.00
11836;DHT22;5977;51.972;7.640;2022-10-16T13:16:17;22.00;77.60
11836;DHT22;5977;51.972;7.640;2022-10-16T13:18:56;22.00;76.90
11836;DHT22;5977;51.972;7.640;2022-10-16T13:21:38;22.00;78.40
11836;DHT22;5977;51.972;7.640;2022-10-16T13:24:19;22.10;78.50
11836;DHT22;5977;51.972;7.640;2022-10-16T13:26:53;22.00;78.40
11836;DHT22;5977;51.972;7.640;2022-10-16T13:29:23;22.00;78.10
11836;DHT22;5977;51.972;7.640;2022-10-16T13:31:51;21.90;77.60
11836;DHT22;5977;51.972;7.640;2022-10-16T13:34:21;22.00;77.50
11836;DHT22;5977;51.972;7.640;2022-10-16T13:36:51;21.80;77.50
11836;DHT22;5977;51.972;7.640;2022-10-16T13:39:23;21.90;77.20
11836;DHT22;5977;51.972;7.640;2022-10-16T13:42:02;21.80;77.80
11836;DHT22;5977;51.972;7.640;2022-10-16T13:44:37;21.90;78.00
11836;DHT22;5977;51.972;7.640;2022-10-16T13:47:15;21.80;78.10
11836;DHT22;5977;51.972;7.640;2022-10-16T13:49:44;21.80;78.10
11836;DHT22;5977;51.972;7.640;2022-10-16T13:52:17;21.70;78.50
11836;DHT22;5977;51.972;7.640;2022-10-16T13:54:47;21.80;78.50
11836;DHT22;5977;51.972;7.640;2022-10-16T13:57:15;21.80;78.50
11836;DHT22;5977;51.972;7.640;2022-10-16T13:59:59;21.90;79.10
11836;DHT22;5977;51.972;7.640;2022-10-16T14:02:30;21.80;77.10
11836;DHT22;5977;51.972;7.640;2022-10-16T14:04:58;21.70;77.50
11836;DHT22;5977;51.972;7.640;2022-10-16T14:07:28;21.50;78.00
11836;DHT22;5977;51.972;7.640;2022-10-16T14:10:03;21.40;77.20
11836;DHT22;5977;51.972;7.640;2022-10-16T14:12:31;21.40;77.60
11836;DHT22;5977;51.972;7.640;2022-10-16T14:15:00;21.50;78.20
11836;DHT22;5977;51.972;7.640;2022-10-16T14:17:29;21.40;77.90
11836;DHT22;5977;51.972;7.640;2022-10-16T14:19:59;21.30;78.00
11836;DHT22;5977;51.972;7.640;2022-10-16T14:22:34;21.20;77.80
11836;DHT22;5977;51.972;7.640;2022-10-16T14:25:20;21.20;77.60
11836;DHT22;5977;51.972;7.640;2022-10-16T14:28:00;21.30;77.80
11836;DHT22;5977;51.972;7.640;2022-10-16T14:30:29;21.20;77.10
11836;DHT22;5977;51.972;7.640;2022-10-16T14:33:30;21.20;78.50
11836;DHT22;5977;51.972;7.640;2022-10-16T14:36:43;21.10;78.20
11836;DHT22;5977;51.972;7.640;2022-10-16T14:45:12;21.10;78.70
11836;DHT22;5977;51.972;7.640;2022-10-16T14:52:59;21.10;79.60
11836;DHT22;5977;51.972;7.640;2022-10-16T14:55:26;21.10;79.20
11836;DHT22;5977;51.972;7.640;2022-10-16T14:57:54;21.00;79.10
11836;DHT22;5977;51.972;7.640;2022-10-16T15:00:28;21.10;79.20
11836;DHT22;5977;51.972;7.640;2022-10-16T15:02:55;21.10;79.40
11836;DHT22;5977;51.972;7.640;2022-10-16T15:05:25;21.00;79.10
11836;DHT22;5977;51.972;7.640;2022-10-16T15:07:54;20.90;79.20
11836;DHT22;5977;51.972;7.640;2022-10-16T15:10:24;21.00;80.00
11836;DHT22;5977;51.972;7.640;2022-10-16T15:12:52;21.00;79.50
11836;DHT22;5977;51.972;7.640;2022-10-16T15:15:34;20.90;80.30
11836;DHT22;5977;51.972;7.640;2022-10-16T15:18:03;20.90;79.20
11836;DHT22;5977;51.972;7.640;2022-10-16T15:20:32;21.00;79.60
11836;DHT22;5977;51.972;7.640;2022-10-16T15:23:01;21.00;79.40
11836;DHT22;5977;51.972;7.640;2022-10-16T15:25:32;20.90;79.20
11836;DHT22;5977;51.972;7.640;2022-10-16T15:28:03;20.90;78.90
11836;DHT22;5977;51.972;7.640;2022-10-16T15:30:32;21.00;79.70
11836;DHT22;5977;51.972;7.640;2022-10-16T15:33:00;21.00;79.10
11836;DHT22;5977;51.972;7.640;2022-10-16T15:35:28;20.60;79.70
11836;DHT22;5977;51.972;7.640;2022-10-16T15:37:56;20.70;80.60
11836;DHT22;5977;51.972;7.640;2022-10-16T15:40:24;20.80;80.70
11836;DHT22;5977;51.972;7.640;2022-10-16T15:42:52;20.80;80.50
11836;DHT22;5977;51.972;7.640;2022-10-16T15:45:20;20.90;80.70
11836;DHT22;5977;51.972;7.640;2022-10-16T15:47:49;20.90;80.80
11836;DHT22;5977;51.972;7.640;2022-10-16T15:50:17;20.90;80.90
11836;DHT22;5977;51.972;7.640;2022-10-16T15:52:45;21.00;80.70
11836;DHT22;5977;51.972;7.640;2022-10-16T15:55:14;20.90;80.40
11836;DHT22;5977;51.972;7.640;2022-10-16T15:57:41;20.90;81.30
11836;DHT22;5977;51.972;7.640;2022-10-16T16:00:11;20.90;81.70
11836;DHT22;5977;51.972;7.640;2022-10-16T16:02:40;20.80;82.30
11836;DHT22;5977;51.972;7.640;2022-10-16T16:05:10;20.80;82.80
11836;DHT22;5977;51.972;7.640;2022-10-16T16:07:39;20.90;83.10
11836;DHT22;5977;51.972;7.640;2022-10-16T16:10:09;20.80;83.70
11836;DHT22;5977;51.972;7.640;2022-10-16T16:12:38;20.80;84.10
11836;DHT22;5977;51.972;7.640;2022-10-16T16:15:07;20.80;84.40
11836;DHT22;5977;51.972;7.640;2022-10-16T16:17:36;20.80;84.60
11836;DHT22;5977;51.972;7.640;2022-10-16T16:20:05;20.80;84.10
11836;DHT22;5977;51.972;7.640;2022-10-16T16:22:34;20.80;83.80
11836;DHT22;5977;51.972;7.640;2022-10-16T16:25:03;20.70;84.80
11836;DHT22;5977;51.972;7.640;2022-10-16T16:27:31;20.70;84.80
11836;DHT22;5977;51.972;7.640;2022-10-16T16:30:00;20.70;85.30
11836;DHT22;5977;51.972;7.640;2022-10-16T16:32:30;20.70;85.70
11836;DHT22;5977;51.972;7.640;2022-10-16T16:34:57;20.60;85.20